createdAt,value
2018-12-21T00:02:27.068Z,5.60
2018-12-21T00:04:54.578Z,5.63
2018-12-21T00:07:22.078Z,5.61
2018-12-21T00:09:49.590Z,5.61
2018-12-21T00:12:17.160Z,5.56
2018-12-21T00:14:45.125Z,5.56
2018-12-21T00:17:12.790Z,5.51
2018-12-21T00:19:40.364Z,5.48
2018-12-21T00:22:07.902Z,5.48
2018-12-21T00:24:35.413Z,5.45
2018-12-21T00:27:02.976Z,5.44
2018-12-21T00:29:30.535Z,5.44
2018-12-21T00:32:03.766Z,5.39
2018-12-21T00:34:36.970Z,5.35
2018-12-21T00:37:10.057Z,5.34
2018-12-21T00:39:43.258Z,5.31
2018-12-21T00:42:12.789Z,5.30
2018-12-21T00:44:40.347Z,5.22
2018-12-21T00:47:08.295Z,5.24
2018-12-21T00:49:35.855Z,5.26
2018-12-21T00:52:03.441Z,5.18
2018-12-21T00:54:30.967Z,5.16
2018-12-21T00:56:58.461Z,5.14
2018-12-21T00:59:25.962Z,5.10
2018-12-21T01:01:54.189Z,5.06
2018-12-21T01:04:21.697Z,5.03
2018-12-21T01:06:49.304Z,5.04
2018-12-21T01:09:16.853Z,5.06
2018-12-21T01:11:44.357Z,5.05
2018-12-21T01:14:11.931Z,5.02
2018-12-21T01:16:39.468Z,4.99
2018-12-21T01:19:07.050Z,4.99
2018-12-21T01:21:38.651Z,5.03
2018-12-21T01:24:04.196Z,5.06
2018-12-21T01:26:31.909Z,5.08
2018-12-21T01:28:59.470Z,5.08
2018-12-21T01:31:27.132Z,5.09
2018-12-21T01:33:54.634Z,5.13
2018-12-21T01:36:22.281Z,5.13
2018-12-21T01:38:49.915Z,5.15
2018-12-21T01:41:17.425Z,5.14
2018-12-21T01:43:44.935Z,5.17
2018-12-21T01:46:12.494Z,5.19
2018-12-21T01:48:40.002Z,5.21
2018-12-21T01:51:07.510Z,5.25
2018-12-21T01:53:35.010Z,5.25
2018-12-21T01:56:02.562Z,5.27
2018-12-21T01:58:30.087Z,5.28
2018-12-21T02:00:57.643Z,5.28
2018-12-21T02:03:25.215Z,5.28
2018-12-21T02:05:52.771Z,5.30
2018-12-21T02:08:20.331Z,5.32
2018-12-21T02:10:47.995Z,5.36
2018-12-21T02:13:15.552Z,5.35
2018-12-21T02:15:43.118Z,5.37
2018-12-21T02:18:10.675Z,5.41
2018-12-21T02:20:38.697Z,5.42
2018-12-21T02:23:06.304Z,5.43
2018-12-21T02:25:33.863Z,5.46
2018-12-21T02:28:01.448Z,5.48
2018-12-21T02:30:29.112Z,5.50
2018-12-21T02:32:56.662Z,5.49
2018-12-21T02:35:24.165Z,5.53
2018-12-21T02:37:51.775Z,5.54
2018-12-21T02:40:19.335Z,5.55
2018-12-21T02:42:46.828Z,5.58
2018-12-21T02:45:14.459Z,5.59
2018-12-21T02:47:42.050Z,5.59
2018-12-21T02:50:09.639Z,5.58
2018-12-21T02:52:37.134Z,5.61
2018-12-21T02:55:04.719Z,5.61
2018-12-21T02:57:32.212Z,5.61
2018-12-21T02:59:59.784Z,5.64
2018-12-21T03:02:27.373Z,5.67
2018-12-21T03:04:54.925Z,5.68
2018-12-21T03:07:22.434Z,5.69
2018-12-21T03:09:49.948Z,5.67
2018-12-21T03:12:17.507Z,5.68
2018-12-21T03:14:45.014Z,5.72
2018-12-21T03:17:12.620Z,5.70
2018-12-21T03:19:40.126Z,5.68
2018-12-21T03:22:14.563Z,5.70
2018-12-21T03:24:37.255Z,5.73
2018-12-21T03:27:04.770Z,5.76
2018-12-21T03:29:32.394Z,5.74
2018-12-21T03:32:00.202Z,5.77
2018-12-21T03:34:28.035Z,5.78
2018-12-21T03:36:55.566Z,5.76
2018-12-21T03:39:23.695Z,5.80
2018-12-21T03:41:51.342Z,5.80
2018-12-21T03:44:19.240Z,5.82
2018-12-21T03:46:46.785Z,5.81
2018-12-21T03:49:14.300Z,5.80
2018-12-21T03:51:41.815Z,5.81
2018-12-21T03:54:09.355Z,5.83
2018-12-21T03:56:36.911Z,5.86
2018-12-21T03:59:04.448Z,5.84
2018-12-21T04:01:32.715Z,5.85
2018-12-21T04:04:00.265Z,5.84
2018-12-21T04:06:27.835Z,5.88
2018-12-21T04:08:55.480Z,5.86
2018-12-21T04:11:23.016Z,5.91
2018-12-21T04:13:50.526Z,5.93
2018-12-21T04:16:18.035Z,5.89
2018-12-21T04:18:45.550Z,5.92
2018-12-21T04:21:13.109Z,5.90
2018-12-21T04:23:41.105Z,5.92
2018-12-21T04:26:08.660Z,5.94
2018-12-21T04:28:36.170Z,5.94
2018-12-21T04:31:03.937Z,5.95
2018-12-21T04:33:31.490Z,5.97
2018-12-21T04:35:59.051Z,5.96
2018-12-21T04:38:26.594Z,5.97
2018-12-21T04:40:54.172Z,6.03
2018-12-21T04:43:21.854Z,5.97
2018-12-21T04:45:49.393Z,5.97
2018-12-21T04:48:17.009Z,6.01
2018-12-21T04:50:44.639Z,6.01
2018-12-21T04:53:12.182Z,6.02
2018-12-21T04:55:39.739Z,6.00
2018-12-21T04:58:07.318Z,5.98
2018-12-21T05:00:34.917Z,5.98
2018-12-21T05:03:02.534Z,6.02
2018-12-21T05:05:30.038Z,6.03
2018-12-21T05:07:57.574Z,6.01
2018-12-21T05:10:25.123Z,5.99
2018-12-21T05:12:52.626Z,6.04
2018-12-21T05:15:20.217Z,6.04
2018-12-21T05:17:47.778Z,6.04
2018-12-21T05:20:15.337Z,6.04
2018-12-21T05:22:51.913Z,6.02
2018-12-21T05:25:12.477Z,6.03
2018-12-21T05:27:40.110Z,6.04
2018-12-21T05:30:08.681Z,6.04
2018-12-21T05:32:36.211Z,6.07
2018-12-21T05:35:03.800Z,6.06
2018-12-21T05:37:31.304Z,6.06
2018-12-21T05:39:58.818Z,6.04
2018-12-21T05:42:26.391Z,6.08
2018-12-21T05:44:54.010Z,6.05
2018-12-21T05:47:21.609Z,6.04
2018-12-21T05:49:49.234Z,6.06
2018-12-21T05:52:16.887Z,6.08
2018-12-21T05:54:44.498Z,6.08
2018-12-21T05:57:12.887Z,6.10
2018-12-21T05:59:40.398Z,6.09
2018-12-21T06:02:07.985Z,6.12
2018-12-21T06:04:35.535Z,6.08
2018-12-21T06:07:03.438Z,6.10
2018-12-21T06:09:31.003Z,6.08
2018-12-21T06:11:58.536Z,6.10
2018-12-21T06:14:26.087Z,6.10
2018-12-21T06:16:53.598Z,6.08
2018-12-21T06:19:21.182Z,6.09
2018-12-21T06:21:49.545Z,6.11
2018-12-21T06:24:17.045Z,6.11
2018-12-21T06:26:44.618Z,6.12
2018-12-21T06:29:12.186Z,6.08
2018-12-21T06:31:39.701Z,6.12
2018-12-21T06:34:07.274Z,6.13
2018-12-21T06:36:34.789Z,6.17
2018-12-21T06:39:02.289Z,6.18
2018-12-21T06:41:29.938Z,6.17
2018-12-21T06:43:57.498Z,6.15
2018-12-21T06:46:25.052Z,6.11
2018-12-21T06:48:52.559Z,6.16
2018-12-21T06:51:20.094Z,6.16
2018-12-21T06:53:47.680Z,6.17
2018-12-21T06:56:15.413Z,6.21
2018-12-21T06:58:42.915Z,6.18
2018-12-21T07:01:10.484Z,6.16
2018-12-21T07:03:37.978Z,6.21
2018-12-21T07:06:05.578Z,6.21
2018-12-21T07:08:33.074Z,6.17
2018-12-21T07:11:00.590Z,6.23
2018-12-21T07:13:28.131Z,6.26
2018-12-21T07:15:55.703Z,6.26
2018-12-21T07:18:23.236Z,6.16
2018-12-21T07:20:50.802Z,6.18
2018-12-21T07:23:26.866Z,6.15
2018-12-21T07:25:47.969Z,6.19
2018-12-21T07:28:15.454Z,6.22
2018-12-21T07:30:42.953Z,6.18
2018-12-21T07:33:10.546Z,6.17
2018-12-21T07:35:38.059Z,6.15
2018-12-21T07:38:05.687Z,6.16
2018-12-21T07:40:33.224Z,6.16
2018-12-21T07:43:00.783Z,6.15
2018-12-21T07:45:28.351Z,6.13
2018-12-21T07:47:56.012Z,6.10
2018-12-21T07:50:23.564Z,6.14
2018-12-21T07:52:53.257Z,6.14
2018-12-21T07:55:20.738Z,6.14
2018-12-21T07:57:48.296Z,6.07
2018-12-21T08:00:15.873Z,6.09
2018-12-21T08:02:43.380Z,6.12
2018-12-21T08:05:10.912Z,6.12
2018-12-21T08:07:38.462Z,6.13
2018-12-21T08:10:09.610Z,6.14
2018-12-21T08:12:37.142Z,6.09
2018-12-21T08:15:05.614Z,6.12
2018-12-21T08:17:33.279Z,6.16
2018-12-21T08:20:00.822Z,6.18
2018-12-21T08:22:28.343Z,6.19
2018-12-21T08:24:55.985Z,6.18
2018-12-21T08:27:23.558Z,6.22
2018-12-21T08:29:51.289Z,6.21
2018-12-21T08:32:18.813Z,6.16
2018-12-21T08:34:46.320Z,6.26
2018-12-21T08:37:13.870Z,6.20
2018-12-21T08:39:41.518Z,6.24
2018-12-21T08:42:09.042Z,6.27
2018-12-21T08:44:36.579Z,6.24
2018-12-21T08:47:04.130Z,6.27
2018-12-21T08:49:32.397Z,6.22
2018-12-21T08:52:00.131Z,6.26
2018-12-21T08:54:27.658Z,6.28
2018-12-21T08:56:55.193Z,6.23
2018-12-21T08:59:22.900Z,6.26
2018-12-21T09:01:50.488Z,6.25
2018-12-21T09:04:18.204Z,6.24
2018-12-21T09:06:45.742Z,6.27
2018-12-21T09:09:13.239Z,6.25
2018-12-21T09:11:40.929Z,6.28
2018-12-21T09:14:08.562Z,6.34
2018-12-21T09:16:36.154Z,6.36
2018-12-21T09:19:03.752Z,6.37
2018-12-21T09:21:31.243Z,6.35
2018-12-21T09:24:01.115Z,6.41
2018-12-21T09:26:28.368Z,6.46
2018-12-21T09:28:55.867Z,6.50
2018-12-21T09:31:23.442Z,6.48
2018-12-21T09:33:51.084Z,6.53
2018-12-21T09:36:18.681Z,6.53
2018-12-21T09:38:46.279Z,6.56
2018-12-21T09:41:13.941Z,6.61
2018-12-21T09:43:41.447Z,6.64
2018-12-21T09:46:09.025Z,6.64
2018-12-21T09:48:36.539Z,6.68
2018-12-21T09:51:05.063Z,6.67
2018-12-21T09:53:32.563Z,6.70
2018-12-21T09:56:00.098Z,6.75
2018-12-21T09:58:27.682Z,6.78
2018-12-21T10:00:55.375Z,6.90
2018-12-21T10:03:22.971Z,6.97
2018-12-21T10:05:50.483Z,7.00
2018-12-21T10:08:18.017Z,7.08
2018-12-21T10:10:45.572Z,7.10
2018-12-21T10:13:13.106Z,7.13
2018-12-21T10:15:40.602Z,7.17
2018-12-21T10:18:08.227Z,7.24
2018-12-21T10:20:35.726Z,7.20
2018-12-21T10:23:03.343Z,7.24
2018-12-21T10:25:30.906Z,7.25
2018-12-21T10:27:58.401Z,7.23
2018-12-21T10:30:25.940Z,7.22
2018-12-21T10:32:53.481Z,7.26
2018-12-21T10:35:20.968Z,7.24
2018-12-21T10:37:48.500Z,7.26
2018-12-21T10:40:16.060Z,7.31
2018-12-21T10:42:43.555Z,7.31
2018-12-21T10:45:11.053Z,7.30
2018-12-21T10:47:38.560Z,7.28
2018-12-21T10:50:08.656Z,7.30
2018-12-21T10:52:36.214Z,7.31
2018-12-21T10:55:04.389Z,7.32
2018-12-21T10:57:31.934Z,7.30
2018-12-21T10:59:59.507Z,7.34
2018-12-21T11:02:27.062Z,7.40
2018-12-21T11:04:54.563Z,7.36
2018-12-21T11:07:22.473Z,7.40
2018-12-21T11:09:49.969Z,7.38
2018-12-21T11:12:17.470Z,7.43
2018-12-21T11:14:45.075Z,7.44
2018-12-21T11:17:12.589Z,7.44
2018-12-21T11:19:40.203Z,7.45
2018-12-21T11:22:07.783Z,7.38
2018-12-21T11:24:35.879Z,7.45
2018-12-21T11:27:03.603Z,7.43
2018-12-21T11:29:31.176Z,7.47
2018-12-21T11:31:58.705Z,7.49
2018-12-21T11:34:26.211Z,7.48
2018-12-21T11:36:53.758Z,7.43
2018-12-21T11:39:21.287Z,7.41
2018-12-21T11:41:49.374Z,7.42
2018-12-21T11:44:16.921Z,7.38
2018-12-21T11:46:44.422Z,7.35
2018-12-21T11:49:11.939Z,7.37
2018-12-21T11:51:39.459Z,7.39
2018-12-21T11:54:06.957Z,7.35
2018-12-21T11:56:34.487Z,7.35
2018-12-21T11:59:02.014Z,7.33
2018-12-21T12:01:29.549Z,7.35
2018-12-21T12:03:57.092Z,7.38
2018-12-21T12:06:24.600Z,7.33
2018-12-21T12:08:52.172Z,7.30
2018-12-21T12:11:19.948Z,7.41
2018-12-21T12:13:47.481Z,7.42
2018-12-21T12:16:15.073Z,7.44
2018-12-21T12:18:42.563Z,7.41
2018-12-21T12:21:10.118Z,7.41
2018-12-21T12:23:38.042Z,7.45
2018-12-21T12:26:05.799Z,7.38
2018-12-21T12:28:33.495Z,7.39
2018-12-21T12:31:01.080Z,7.32
2018-12-21T12:33:28.634Z,7.37
2018-12-21T12:35:56.167Z,7.31
2018-12-21T12:38:23.693Z,7.36
2018-12-21T12:40:51.287Z,7.33
2018-12-21T12:43:18.974Z,7.29
2018-12-21T12:45:46.489Z,7.28
2018-12-21T12:48:14.011Z,7.26
2018-12-21T12:50:41.520Z,7.27
2018-12-21T12:53:09.071Z,7.24
2018-12-21T12:55:36.674Z,7.26
2018-12-21T12:58:04.269Z,7.27
2018-12-21T13:00:31.805Z,7.24
2018-12-21T13:02:59.460Z,7.21
2018-12-21T13:05:27.045Z,7.15
2018-12-21T13:07:54.579Z,7.14
2018-12-21T13:10:22.145Z,7.18
2018-12-21T13:12:49.698Z,7.17
2018-12-21T13:15:17.262Z,7.15
2018-12-21T13:17:44.922Z,7.14
2018-12-21T13:20:12.598Z,7.13
2018-12-21T13:22:40.258Z,7.08
2018-12-21T13:25:11.629Z,7.09
2018-12-21T13:27:37.968Z,7.12
2018-12-21T13:30:07.854Z,7.05
2018-12-21T13:32:35.413Z,7.07
2018-12-21T13:35:03.020Z,7.10
2018-12-21T13:37:30.623Z,7.04
2018-12-21T13:39:58.179Z,7.04
2018-12-21T13:42:26.918Z,7.02
2018-12-21T13:44:54.625Z,6.99
2018-12-21T13:47:22.244Z,7.03
2018-12-21T13:49:49.772Z,7.02
2018-12-21T13:52:17.266Z,7.00
2018-12-21T13:54:44.809Z,6.99
2018-12-21T13:57:12.335Z,7.01
2018-12-21T13:59:39.893Z,7.03
2018-12-21T14:02:07.477Z,7.03
2018-12-21T14:04:35.103Z,7.00
2018-12-21T14:07:02.633Z,7.05
2018-12-21T14:09:30.128Z,7.04
2018-12-21T14:11:57.613Z,7.02
2018-12-21T14:14:25.107Z,7.01
2018-12-21T14:16:52.664Z,6.96
2018-12-21T14:19:20.274Z,7.02
2018-12-21T14:21:47.828Z,6.97
2018-12-21T14:24:15.311Z,6.95
2018-12-21T14:26:42.830Z,6.93
2018-12-21T14:29:10.404Z,6.97
2018-12-21T14:31:37.900Z,6.96
2018-12-21T14:34:05.450Z,6.97
2018-12-21T14:36:32.955Z,6.94
2018-12-21T14:39:00.499Z,6.95
2018-12-21T14:41:28.103Z,6.94
2018-12-21T14:43:55.596Z,6.96
2018-12-21T14:46:23.147Z,6.93
2018-12-21T14:48:50.777Z,6.92
2018-12-21T14:51:18.307Z,6.92
2018-12-21T14:53:45.977Z,6.90
2018-12-21T14:56:13.566Z,6.87
2018-12-21T14:58:41.149Z,6.87
2018-12-21T15:01:08.840Z,6.89
2018-12-21T15:03:36.451Z,6.84
2018-12-21T15:06:04.011Z,6.84
2018-12-21T15:08:31.497Z,6.83
2018-12-21T15:10:59.022Z,6.83
2018-12-21T15:13:26.521Z,6.81
2018-12-21T15:15:54.047Z,6.81
2018-12-21T15:18:21.613Z,6.82
2018-12-21T15:20:49.168Z,6.81
2018-12-21T15:23:16.666Z,6.83
2018-12-21T15:25:46.174Z,6.83
2018-12-21T15:28:13.821Z,6.79
2018-12-21T15:30:41.354Z,6.84
2018-12-21T15:33:08.849Z,6.81
2018-12-21T15:35:36.393Z,6.83
2018-12-21T15:38:03.929Z,6.82
2018-12-21T15:40:31.433Z,6.83
2018-12-21T15:42:59.063Z,6.82
2018-12-21T15:45:26.712Z,6.87
2018-12-21T15:47:54.214Z,6.84
2018-12-21T15:50:21.754Z,6.85
2018-12-21T15:52:49.392Z,6.90
2018-12-21T15:55:16.950Z,6.89
2018-12-21T15:57:44.450Z,6.91
2018-12-21T16:00:12.174Z,6.91
2018-12-21T16:02:40.776Z,6.92
2018-12-21T16:05:08.390Z,6.95
2018-12-21T16:07:35.894Z,6.97
2018-12-21T16:10:05.983Z,6.99
2018-12-21T16:12:33.557Z,7.00
2018-12-21T16:15:01.117Z,7.00
2018-12-21T16:17:28.681Z,6.99
2018-12-21T16:19:56.177Z,7.01
2018-12-21T16:22:23.691Z,7.01
2018-12-21T16:24:51.278Z,7.03
2018-12-21T16:27:18.834Z,7.04
2018-12-21T16:29:46.487Z,7.04
2018-12-21T16:32:14.038Z,7.05
2018-12-21T16:34:41.598Z,7.05
2018-12-21T16:37:09.158Z,7.05
2018-12-21T16:39:36.654Z,7.03
2018-12-21T16:42:04.277Z,7.07
2018-12-21T16:44:31.837Z,7.07
2018-12-21T16:46:59.403Z,7.04
2018-12-21T16:49:26.957Z,7.10
2018-12-21T16:51:54.594Z,7.10
2018-12-21T16:54:22.225Z,7.11
2018-12-21T16:56:49.844Z,7.14
2018-12-21T16:59:17.374Z,7.15
2018-12-21T17:01:44.987Z,7.13
2018-12-21T17:04:12.533Z,7.15
2018-12-21T17:06:40.083Z,7.16
2018-12-21T17:09:08.052Z,7.14
2018-12-21T17:11:35.612Z,7.15
2018-12-21T17:14:03.179Z,7.16
2018-12-21T17:16:30.740Z,7.17
2018-12-21T17:18:59.084Z,7.17
2018-12-21T17:21:26.615Z,7.20
2018-12-21T17:23:54.331Z,7.20
2018-12-21T17:26:21.893Z,7.16
2018-12-21T17:28:49.455Z,7.21
2018-12-21T17:31:16.991Z,7.23
2018-12-21T17:33:44.580Z,7.27
2018-12-21T17:36:12.078Z,7.29
2018-12-21T17:38:39.589Z,7.31
2018-12-21T17:41:07.089Z,7.32
2018-12-21T17:43:34.583Z,7.31
2018-12-21T17:46:02.169Z,7.31
2018-12-21T17:48:29.736Z,7.35
2018-12-21T17:50:57.290Z,7.40
2018-12-21T17:53:24.786Z,7.43
2018-12-21T17:55:52.292Z,7.43
2018-12-21T17:58:19.793Z,7.45
2018-12-21T18:00:47.353Z,7.50
2018-12-21T18:03:18.369Z,7.52
2018-12-21T18:05:45.930Z,7.56
2018-12-21T18:08:13.486Z,7.59
2018-12-21T18:10:41.040Z,7.66
2018-12-21T18:13:09.528Z,7.73
2018-12-21T18:15:37.096Z,7.73
2018-12-21T18:18:04.651Z,7.74
2018-12-21T18:20:32.147Z,7.77
2018-12-21T18:23:00.822Z,7.85
2018-12-21T18:25:28.322Z,7.84
2018-12-21T18:27:55.923Z,7.91
2018-12-21T18:30:23.430Z,7.95
2018-12-21T18:32:50.984Z,7.95
2018-12-21T18:35:19.638Z,7.96
2018-12-21T18:37:48.711Z,7.99
2018-12-21T18:40:16.302Z,8.07
2018-12-21T18:42:43.845Z,8.07
2018-12-21T18:45:11.354Z,8.20
2018-12-21T18:47:38.971Z,8.21
2018-12-21T18:50:09.169Z,8.19
2018-12-21T18:52:36.736Z,8.21
2018-12-21T18:55:08.206Z,8.29
2018-12-21T18:57:35.767Z,8.32
2018-12-21T19:00:06.144Z,8.33
2018-12-21T19:02:33.658Z,8.35
2018-12-21T19:05:01.196Z,8.39
2018-12-21T19:07:28.706Z,8.46
2018-12-21T19:09:56.420Z,8.48
2018-12-21T19:12:23.921Z,8.51
2018-12-21T19:14:51.497Z,8.58
2018-12-21T19:17:19.061Z,8.57
2018-12-21T19:19:46.564Z,8.63
2018-12-21T19:22:14.060Z,8.62
2018-12-21T19:24:41.752Z,8.73
2018-12-21T19:27:09.335Z,8.71
2018-12-21T19:29:36.893Z,8.76
2018-12-21T19:32:04.385Z,8.80
2018-12-21T19:34:31.918Z,8.80
2018-12-21T19:36:59.581Z,8.80
2018-12-21T19:39:27.242Z,8.78
2018-12-21T19:41:54.734Z,8.86
2018-12-21T19:44:22.225Z,8.85
2018-12-21T19:46:49.751Z,8.82
2018-12-21T19:49:17.384Z,8.82
2018-12-21T19:51:45.055Z,8.84
2018-12-21T19:54:13.006Z,8.84
2018-12-21T19:56:43.282Z,8.81
2018-12-21T19:59:10.816Z,8.81
2018-12-21T20:01:38.569Z,8.79
2018-12-21T20:04:06.081Z,8.79
2018-12-21T20:06:33.672Z,8.81
2018-12-21T20:09:01.173Z,8.81
2018-12-21T20:11:28.794Z,8.81
2018-12-21T20:13:56.440Z,8.79
2018-12-21T20:16:23.943Z,8.86
2018-12-21T20:18:51.443Z,8.85
2018-12-21T20:21:18.963Z,8.86
2018-12-21T20:23:47.144Z,8.85
2018-12-21T20:26:14.687Z,8.84
2018-12-21T20:28:42.226Z,8.86
2018-12-21T20:31:09.888Z,8.90
2018-12-21T20:33:37.453Z,8.91
2018-12-21T20:36:05.016Z,8.93
2018-12-21T20:38:32.526Z,8.94
2018-12-21T20:41:02.893Z,8.98
2018-12-21T20:43:30.457Z,9.01
2018-12-21T20:45:58.013Z,9.00
2018-12-21T20:48:25.513Z,9.02
2018-12-21T20:50:53.134Z,9.08
2018-12-21T20:53:20.691Z,9.12
2018-12-21T20:55:48.191Z,9.11
2018-12-21T20:58:19.840Z,9.11
2018-12-21T21:00:47.339Z,9.15
2018-12-21T21:03:14.863Z,9.22
2018-12-21T21:05:44.052Z,9.24
2018-12-21T21:08:11.873Z,9.28
2018-12-21T21:10:39.450Z,9.27
2018-12-21T21:13:06.969Z,9.37
2018-12-21T21:15:34.627Z,9.37
2018-12-21T21:18:02.201Z,9.38
2018-12-21T21:20:30.939Z,9.41
2018-12-21T21:22:58.435Z,9.40
2018-12-21T21:25:26.046Z,9.43
2018-12-21T21:27:53.599Z,9.51
2018-12-21T21:30:21.157Z,9.59
2018-12-21T21:32:48.666Z,9.62
2018-12-21T21:35:16.284Z,9.57
2018-12-21T21:37:43.809Z,9.61
2018-12-21T21:40:14.777Z,9.68
2018-12-21T21:42:42.342Z,9.69
2018-12-21T21:45:10.250Z,9.70
2018-12-21T21:47:37.850Z,9.71
2018-12-21T21:50:08.528Z,9.77
2018-12-21T21:52:36.162Z,9.73
2018-12-21T21:55:04.268Z,9.76
2018-12-21T21:57:39.312Z,9.80
2018-12-21T22:00:01.499Z,9.84
2018-12-21T22:02:29.072Z,9.90
2018-12-21T22:04:56.630Z,9.90
2018-12-21T22:07:24.192Z,9.92
2018-12-21T22:09:51.846Z,9.89
2018-12-21T22:12:19.513Z,9.92
2018-12-21T22:14:47.072Z,9.97
2018-12-21T22:17:14.673Z,9.91
2018-12-21T22:19:42.292Z,9.91
2018-12-21T22:22:09.849Z,9.87
2018-12-21T22:24:37.408Z,9.93
2018-12-21T22:27:05.130Z,9.93
2018-12-21T22:29:32.748Z,9.98
2018-12-21T22:32:00.246Z,9.91
2018-12-21T22:34:27.772Z,9.95
2018-12-21T22:36:55.286Z,9.91
2018-12-21T22:39:22.808Z,9.89
2018-12-21T22:41:50.344Z,9.88
2018-12-21T22:44:17.842Z,9.92
2018-12-21T22:46:45.385Z,9.88
2018-12-21T22:49:12.946Z,9.85
2018-12-21T22:51:40.449Z,9.83
2018-12-21T22:54:07.959Z,9.78
2018-12-21T22:56:35.452Z,9.76
2018-12-21T22:59:03.044Z,9.74
2018-12-21T23:01:30.572Z,9.73
2018-12-21T23:03:58.174Z,9.62
2018-12-21T23:06:25.744Z,9.63
2018-12-21T23:08:53.306Z,9.64
2018-12-21T23:11:20.819Z,9.73
2018-12-21T23:13:48.301Z,9.66
2018-12-21T23:16:15.797Z,9.59
2018-12-21T23:18:43.328Z,9.58
2018-12-21T23:21:10.836Z,9.56
2018-12-21T23:23:38.340Z,9.69
2018-12-21T23:26:05.829Z,9.63
2018-12-21T23:28:33.357Z,9.63
2018-12-21T23:31:01.017Z,9.55
2018-12-21T23:33:28.945Z,9.58
2018-12-21T23:35:56.552Z,9.59
2018-12-21T23:38:24.110Z,9.47
2018-12-21T23:40:51.674Z,9.55
2018-12-21T23:43:19.230Z,9.52
2018-12-21T23:45:46.801Z,9.58
2018-12-21T23:48:14.362Z,9.61
2018-12-21T23:50:42.174Z,9.58
2018-12-21T23:53:09.685Z,9.54
2018-12-21T23:55:37.235Z,9.60
2018-12-21T23:58:13.216Z,9.60
